createdAt,value
2022-11-20T00:00:07.170Z,75.44
2022-11-20T00:01:16.117Z,75.38
2022-11-20T00:02:19.230Z,75.30
2022-11-20T00:03:22.250Z,75.42
2022-11-20T00:04:24.976Z,75.38
2022-11-20T00:05:28.105Z,75.25
2022-11-20T00:06:31.232Z,75.16
2022-11-20T00:07:34.197Z,75.25
2022-11-20T00:08:37.323Z,75.17
2022-11-20T00:09:40.257Z,75.06
2022-11-20T00:10:43.075Z,74.76
2022-11-20T00:11:46.509Z,74.72
2022-11-20T00:12:49.456Z,74.79
2022-11-20T00:13:54.537Z,74.87
2022-11-20T00:14:57.512Z,74.96
2022-11-20T00:16:04.829Z,74.96
2022-11-20T00:17:07.970Z,75.05
2022-11-20T00:18:10.904Z,75.03
2022-11-20T00:19:13.888Z,75.10
2022-11-20T00:20:17.146Z,75.20
2022-11-20T00:21:22.498Z,75.16
2022-11-20T00:22:25.796Z,75.06
2022-11-20T00:23:28.941Z,75.12
2022-11-20T00:24:31.926Z,75.04
2022-11-20T00:25:35.970Z,75.12
2022-11-20T00:26:39.222Z,74.97
2022-11-20T00:27:42.265Z,74.90
2022-11-20T00:28:51.359Z,74.80
2022-11-20T00:29:54.235Z,74.83
2022-11-20T00:32:16.556Z,75.08
2022-11-20T00:33:20.175Z,75.04
2022-11-20T00:34:23.085Z,74.96
2022-11-20T00:35:25.830Z,75.03
2022-11-20T00:36:31.423Z,74.87
2022-11-20T00:37:34.171Z,74.72
2022-11-20T00:38:37.388Z,74.71
2022-11-20T00:39:40.224Z,74.76
2022-11-20T00:40:43.068Z,74.77
2022-11-20T00:41:45.759Z,74.75
2022-11-20T00:42:48.580Z,74.83
2022-11-20T00:43:52.982Z,74.75
2022-11-20T00:44:55.826Z,74.78
2022-11-20T00:46:01.160Z,74.86
2022-11-20T00:47:04.267Z,74.88
2022-11-20T00:48:07.107Z,74.99
2022-11-20T00:49:09.912Z,74.98
2022-11-20T00:50:14.640Z,74.96
2022-11-20T00:51:20.530Z,74.89
2022-11-20T00:52:23.372Z,74.93
2022-11-20T00:53:26.681Z,74.95
2022-11-20T00:54:29.506Z,75.00
2022-11-20T00:55:32.304Z,74.88
2022-11-20T00:56:35.214Z,74.95
2022-11-20T00:57:38.017Z,74.81
2022-11-20T00:58:42.819Z,74.82
2022-11-20T00:59:45.709Z,74.97
2022-11-20T01:00:49.996Z,74.99
2022-11-20T01:01:53.004Z,74.97
2022-11-20T01:02:56.549Z,74.92
2022-11-20T01:04:00.671Z,74.92
2022-11-20T01:05:03.924Z,74.76
2022-11-20T01:06:10.043Z,74.78
2022-11-20T01:07:12.804Z,74.81
2022-11-20T01:08:15.687Z,74.89
2022-11-20T01:09:18.621Z,74.83
2022-11-20T01:10:21.595Z,74.84
2022-11-20T01:12:37.447Z,74.71
2022-11-20T01:13:41.236Z,74.76
2022-11-20T01:14:44.132Z,74.83
2022-11-20T01:15:47.048Z,74.83
2022-11-20T01:16:51.710Z,74.89
2022-11-20T01:17:54.553Z,74.77
2022-11-20T01:18:59.972Z,74.79
2022-11-20T01:20:03.219Z,74.94
2022-11-20T01:21:09.423Z,75.05
2022-11-20T01:22:12.362Z,75.02
2022-11-20T01:23:15.356Z,75.12
2022-11-20T01:24:20.031Z,75.27
2022-11-20T01:25:22.870Z,75.36
2022-11-20T01:26:28.449Z,75.52
2022-11-20T01:27:31.367Z,75.40
2022-11-20T01:28:34.913Z,75.37
2022-11-20T01:29:37.632Z,75.39
2022-11-20T01:30:40.437Z,75.37
2022-11-20T01:31:43.749Z,75.21
2022-11-20T01:32:46.582Z,75.20
2022-11-20T01:33:51.569Z,75.11
2022-11-20T01:34:54.390Z,75.00
2022-11-20T01:36:00.750Z,75.15
2022-11-20T01:37:03.620Z,75.13
2022-11-20T01:38:06.413Z,75.13
2022-11-20T01:39:18.183Z,75.16
2022-11-20T01:40:21.155Z,75.12
2022-11-20T01:41:43.920Z,75.21
2022-11-20T01:43:08.682Z,75.30
2022-11-20T01:44:15.316Z,75.34
2022-11-20T01:45:44.612Z,75.32
2022-11-20T01:47:00.128Z,75.22
2022-11-20T01:48:03.018Z,75.00
2022-11-20T01:49:18.663Z,75.18
2022-11-20T01:50:29.272Z,75.29
2022-11-20T01:51:50.642Z,75.16
2022-11-20T01:53:02.741Z,75.18
2022-11-20T01:54:09.171Z,75.21
2022-11-20T01:55:15.465Z,75.28
2022-11-20T01:56:18.913Z,75.28
2022-11-20T01:57:25.084Z,75.08
2022-11-20T01:58:31.454Z,75.03
2022-11-20T01:59:34.762Z,75.03
2022-11-20T02:00:37.907Z,75.14
2022-11-20T02:01:40.863Z,74.84
2022-11-20T02:02:50.113Z,74.85
2022-11-20T02:03:53.574Z,74.99
2022-11-20T02:05:00.100Z,75.10
2022-11-20T02:06:06.612Z,75.05
2022-11-20T02:07:09.707Z,75.13
2022-11-20T02:08:13.219Z,75.17
2022-11-20T02:09:17.068Z,75.22
2022-11-20T02:10:19.952Z,75.19
2022-11-20T02:11:23.088Z,75.12
2022-11-20T02:12:44.536Z,75.10
2022-11-20T02:13:47.852Z,75.09
2022-11-20T02:14:50.699Z,75.16
2022-11-20T02:15:53.835Z,75.27
2022-11-20T02:16:57.861Z,75.36
2022-11-20T02:18:01.097Z,75.39
2022-11-20T02:19:07.618Z,75.34
2022-11-20T02:20:13.153Z,75.37
2022-11-20T02:21:36.652Z,75.39
2022-11-20T02:22:59.639Z,75.30
2022-11-20T02:24:11.523Z,75.12
2022-11-20T02:25:15.526Z,75.12
2022-11-20T02:26:22.568Z,75.11
2022-11-20T02:27:27.146Z,75.17
2022-11-20T02:28:30.391Z,75.32
2022-11-20T02:29:57.773Z,75.51
2022-11-20T02:31:01.538Z,75.40
2022-11-20T02:32:04.549Z,75.27
2022-11-20T02:33:07.377Z,75.28
2022-11-20T02:34:10.554Z,75.39
2022-11-20T02:35:22.826Z,75.33
2022-11-20T02:36:28.903Z,75.33
2022-11-20T02:37:35.135Z,75.44
2022-11-20T02:38:38.350Z,75.44
2022-11-20T02:39:42.181Z,75.51
2022-11-20T02:40:45.149Z,75.48
2022-11-20T02:41:48.297Z,75.47
2022-11-20T02:42:55.930Z,75.39
2022-11-20T02:43:58.884Z,75.42
2022-11-20T02:45:01.733Z,75.54
2022-11-20T02:46:07.535Z,75.63
2022-11-20T02:47:10.869Z,75.57
2022-11-20T02:48:13.784Z,75.64
2022-11-20T02:49:17.225Z,75.50
2022-11-20T02:50:20.949Z,75.53
2022-11-20T02:51:23.771Z,75.46
2022-11-20T02:52:26.968Z,75.51
2022-11-20T02:53:29.650Z,75.59
2022-11-20T02:54:32.513Z,75.64
2022-11-20T02:55:36.612Z,75.64
2022-11-20T02:56:40.135Z,75.60
2022-11-20T02:57:43.078Z,75.62
2022-11-20T02:58:45.991Z,75.53
2022-11-20T02:59:48.981Z,75.51
2022-11-20T03:00:52.765Z,75.41
2022-11-20T03:01:55.809Z,75.47
2022-11-20T03:02:58.802Z,75.27
2022-11-20T03:04:01.837Z,75.17
2022-11-20T03:05:04.937Z,75.33
2022-11-20T03:06:08.335Z,75.23
2022-11-20T03:07:11.337Z,75.25
2022-11-20T03:08:14.286Z,75.25
2022-11-20T03:09:16.997Z,75.16
2022-11-20T03:10:19.820Z,75.04
2022-11-20T03:11:22.615Z,75.00
2022-11-20T03:12:25.429Z,75.09
2022-11-20T03:13:28.237Z,74.98
2022-11-20T03:14:31.015Z,75.12
2022-11-20T03:15:33.816Z,75.04
2022-11-20T03:16:36.708Z,75.02
2022-11-20T03:17:39.567Z,75.10
2022-11-20T03:18:43.055Z,74.82
2022-11-20T03:19:45.855Z,74.81
2022-11-20T03:20:48.761Z,74.72
2022-11-20T03:21:51.649Z,74.81
2022-11-20T03:22:55.455Z,74.87
2022-11-20T03:23:58.160Z,74.80
2022-11-20T03:25:01.071Z,74.88
2022-11-20T03:26:13.825Z,74.98
2022-11-20T03:27:16.759Z,74.91
2022-11-20T03:28:19.567Z,75.00
2022-11-20T03:29:22.740Z,74.99
2022-11-20T03:30:30.386Z,75.08
2022-11-20T03:31:34.016Z,75.08
2022-11-20T03:32:36.876Z,75.05
2022-11-20T03:33:40.904Z,74.75
2022-11-20T03:34:43.921Z,74.73
2022-11-20T03:35:47.003Z,74.75
2022-11-20T03:36:49.830Z,74.61
2022-11-20T03:37:52.758Z,74.59
2022-11-20T03:38:56.897Z,74.63
2022-11-20T03:39:59.836Z,74.47
2022-11-20T03:41:10.991Z,74.37
2022-11-20T03:42:32.442Z,74.16
2022-11-20T03:43:35.320Z,73.95
2022-11-20T03:44:38.237Z,73.84
2022-11-20T03:45:41.273Z,73.80
2022-11-20T03:46:43.997Z,73.99
2022-11-20T03:47:46.927Z,73.96
2022-11-20T03:48:52.001Z,73.98
2022-11-20T03:49:54.807Z,73.98
2022-11-20T03:51:18.841Z,74.04
2022-11-20T03:52:21.813Z,73.94
2022-11-20T03:53:24.661Z,73.94
2022-11-20T03:54:27.396Z,73.82
2022-11-20T03:55:30.388Z,73.99
2022-11-20T03:56:35.932Z,73.96
2022-11-20T03:57:38.886Z,73.89
2022-11-20T03:58:42.097Z,73.77
2022-11-20T03:59:44.956Z,73.85
2022-11-20T04:00:47.786Z,73.79
2022-11-20T04:01:52.815Z,73.56
2022-11-20T04:03:00.782Z,73.47
2022-11-20T04:04:04.180Z,73.50
2022-11-20T04:05:07.458Z,73.70
2022-11-20T04:06:13.993Z,73.64
2022-11-20T04:07:16.956Z,73.52
2022-11-20T04:08:19.773Z,73.43
2022-11-20T04:09:22.859Z,73.43
2022-11-20T04:10:26.100Z,73.61
2022-11-20T04:11:32.118Z,73.58
2022-11-20T04:12:35.160Z,73.51
2022-11-20T04:13:38.548Z,73.44
2022-11-20T04:14:41.580Z,73.43
2022-11-20T04:15:44.415Z,73.42
2022-11-20T04:16:47.660Z,73.62
2022-11-20T04:17:50.469Z,73.66
2022-11-20T04:18:54.763Z,73.69
2022-11-20T04:19:57.572Z,73.60
2022-11-20T04:21:01.127Z,73.52
2022-11-20T04:22:04.018Z,73.52
2022-11-20T04:23:06.812Z,73.59
2022-11-20T04:24:10.811Z,73.49
2022-11-20T04:25:13.719Z,73.45
2022-11-20T04:26:17.724Z,73.60
2022-11-20T04:27:20.567Z,73.59
2022-11-20T04:28:23.370Z,73.74
2022-11-20T04:29:26.361Z,73.63
2022-11-20T04:30:29.157Z,73.70
2022-11-20T04:31:34.244Z,73.26
2022-11-20T04:32:37.144Z,73.15
2022-11-20T04:33:40.845Z,73.12
2022-11-20T04:34:43.649Z,73.25
2022-11-20T04:35:48.341Z,73.34
2022-11-20T04:36:51.174Z,73.21
2022-11-20T04:37:54.062Z,73.19
2022-11-20T04:39:01.651Z,73.33
2022-11-20T04:40:05.224Z,73.48
2022-11-20T04:41:16.860Z,73.40
2022-11-20T04:42:28.925Z,73.28
2022-11-20T04:43:32.548Z,73.52
2022-11-20T04:44:35.345Z,73.48
2022-11-20T04:45:38.292Z,73.50
2022-11-20T04:46:42.468Z,73.51
2022-11-20T04:47:45.220Z,73.59
2022-11-20T04:48:48.323Z,73.52
2022-11-20T04:49:51.276Z,73.29
2022-11-20T04:50:54.530Z,73.12
2022-11-20T04:51:57.850Z,73.08
2022-11-20T04:53:00.754Z,73.04
2022-11-20T04:54:03.725Z,73.07
2022-11-20T04:55:07.636Z,73.01
2022-11-20T04:56:12.757Z,73.06
2022-11-20T04:57:15.857Z,72.89
2022-11-20T04:58:18.684Z,72.89
2022-11-20T04:59:21.822Z,72.84
2022-11-20T05:00:25.582Z,72.60
2022-11-20T05:01:29.756Z,72.58
2022-11-20T05:02:32.733Z,72.52
2022-11-20T05:03:39.668Z,72.59
2022-11-20T05:04:40.319Z,72.64
2022-11-20T05:05:43.148Z,72.64
2022-11-20T05:06:46.067Z,72.69
2022-11-20T05:07:48.807Z,72.67
2022-11-20T05:08:51.737Z,72.77
2022-11-20T05:09:54.660Z,72.83
2022-11-20T05:11:03.645Z,72.91
2022-11-20T05:12:08.475Z,73.00
2022-11-20T05:13:11.350Z,72.98
2022-11-20T05:14:14.438Z,72.87
2022-11-20T05:15:17.507Z,72.77
2022-11-20T05:16:22.892Z,72.75
2022-11-20T05:17:25.890Z,72.73
2022-11-20T05:18:28.731Z,72.67
2022-11-20T05:19:31.676Z,72.75
2022-11-20T05:20:36.408Z,72.68
2022-11-20T05:21:39.486Z,72.68
2022-11-20T05:22:42.915Z,72.61
2022-11-20T05:23:46.545Z,72.46
2022-11-20T05:24:49.615Z,72.49
2022-11-20T05:25:58.655Z,72.38
2022-11-20T05:26:59.058Z,72.15
2022-11-20T05:28:02.151Z,72.15
2022-11-20T05:29:04.986Z,72.03
2022-11-20T05:30:09.049Z,72.13
2022-11-20T05:31:21.993Z,72.14
2022-11-20T05:32:24.637Z,72.09
2022-11-20T05:33:27.563Z,71.98
2022-11-20T05:34:30.489Z,71.88
2022-11-20T05:35:33.418Z,71.65
2022-11-20T05:36:36.552Z,71.63
2022-11-20T05:37:39.486Z,71.52
2022-11-20T05:38:43.168Z,71.28
2022-11-20T05:39:46.097Z,71.21
2022-11-20T05:40:48.915Z,71.16
2022-11-20T05:41:53.732Z,71.41
2022-11-20T05:42:56.790Z,71.40
2022-11-20T05:43:59.929Z,71.23
2022-11-20T05:45:05.193Z,70.99
2022-11-20T05:46:11.995Z,70.90
2022-11-20T05:47:15.013Z,70.92
2022-11-20T05:48:17.733Z,71.06
2022-11-20T05:49:21.010Z,71.17
2022-11-20T05:50:24.177Z,71.26
2022-11-20T05:51:27.807Z,71.42
2022-11-20T05:52:31.245Z,71.59
2022-11-20T05:53:35.667Z,71.66
2022-11-20T05:54:38.905Z,71.60
2022-11-20T05:55:41.800Z,71.67
2022-11-20T05:56:44.615Z,71.70
2022-11-20T05:57:47.715Z,71.56
2022-11-20T05:58:51.336Z,71.56
2022-11-20T05:59:54.268Z,71.44
2022-11-20T06:01:06.755Z,71.40
2022-11-20T06:02:09.696Z,71.39
2022-11-20T06:03:12.601Z,71.59
2022-11-20T06:04:15.437Z,71.66
2022-11-20T06:05:18.390Z,71.79
2022-11-20T06:06:22.346Z,71.64
2022-11-20T06:07:25.202Z,71.60
2022-11-20T06:08:28.633Z,71.59
2022-11-20T06:09:31.708Z,71.50
2022-11-20T06:10:34.834Z,71.54
2022-11-20T06:11:37.776Z,71.56
2022-11-20T06:12:40.671Z,71.63
2022-11-20T06:13:43.689Z,71.58
2022-11-20T06:14:46.629Z,71.65
2022-11-20T06:15:50.859Z,71.67
2022-11-20T06:16:53.774Z,71.65
2022-11-20T06:17:56.601Z,71.72
2022-11-20T06:18:59.601Z,71.83
2022-11-20T06:20:02.613Z,71.89
2022-11-20T06:21:11.081Z,71.77
2022-11-20T06:22:14.248Z,71.76
2022-11-20T06:23:17.106Z,71.69
2022-11-20T06:24:20.391Z,71.69
2022-11-20T06:25:23.289Z,71.52
2022-11-20T06:26:28.016Z,71.47
2022-11-20T06:27:30.936Z,71.49
2022-11-20T06:28:33.867Z,71.32
2022-11-20T06:29:36.669Z,71.40
2022-11-20T06:30:43.025Z,71.33
2022-11-20T06:31:45.870Z,71.30
2022-11-20T06:32:48.689Z,71.24
2022-11-20T06:33:52.295Z,71.13
2022-11-20T06:34:55.438Z,71.12
2022-11-20T06:36:01.621Z,71.12
2022-11-20T06:37:04.039Z,71.13
2022-11-20T06:38:07.073Z,71.14
2022-11-20T06:39:10.052Z,71.10
2022-11-20T06:40:14.935Z,71.16
2022-11-20T06:41:20.573Z,71.12
2022-11-20T06:42:23.532Z,71.02
2022-11-20T06:43:26.759Z,70.84
2022-11-20T06:44:29.586Z,70.90
2022-11-20T06:45:32.509Z,70.85
2022-11-20T06:46:35.451Z,70.77
2022-11-20T06:47:38.512Z,70.71
2022-11-20T06:48:41.539Z,70.55
2022-11-20T06:49:44.514Z,70.63
2022-11-20T06:50:47.455Z,70.58
2022-11-20T06:51:50.386Z,70.36
2022-11-20T06:52:53.613Z,70.27
2022-11-20T06:53:56.541Z,70.16
2022-11-20T06:54:59.460Z,70.06
2022-11-20T06:56:02.900Z,69.97
2022-11-20T06:57:05.925Z,70.04
2022-11-20T06:58:08.788Z,70.12
2022-11-20T06:59:11.714Z,70.07
2022-11-20T07:00:16.611Z,70.09
2022-11-20T07:01:19.799Z,70.13
2022-11-20T07:02:22.630Z,70.09
2022-11-20T07:03:25.451Z,70.21
2022-11-20T07:04:28.484Z,70.12
2022-11-20T07:05:31.446Z,70.25
2022-11-20T07:06:34.365Z,70.27
2022-11-20T07:07:37.329Z,70.37
2022-11-20T07:08:40.248Z,70.35
2022-11-20T07:09:43.089Z,70.35
2022-11-20T07:10:46.009Z,70.28
2022-11-20T07:11:48.836Z,70.14
2022-11-20T07:12:52.780Z,70.16
2022-11-20T07:13:55.521Z,70.22
2022-11-20T07:14:58.647Z,70.10
2022-11-20T07:16:03.997Z,70.04
2022-11-20T07:17:06.952Z,69.94
2022-11-20T07:18:10.033Z,69.96
2022-11-20T07:19:12.930Z,69.93
2022-11-20T07:20:16.310Z,70.15
2022-11-20T07:21:19.158Z,70.13
2022-11-20T07:22:22.054Z,70.07
2022-11-20T07:23:25.020Z,70.10
2022-11-20T07:24:28.186Z,70.06
2022-11-20T07:25:31.038Z,70.18
2022-11-20T07:26:33.858Z,70.09
2022-11-20T07:27:36.831Z,70.16
2022-11-20T07:28:39.630Z,69.99
2022-11-20T07:29:42.431Z,69.83
2022-11-20T10:44:36.193Z,77.98
2022-11-20T10:46:08.642Z,77.70
2022-11-20T10:47:16.912Z,77.47
2022-11-20T10:48:27.707Z,77.30
2022-11-20T10:49:31.674Z,77.08
2022-11-20T10:50:38.419Z,77.09
2022-11-20T10:51:53.410Z,76.99
2022-11-20T10:53:21.175Z,76.90
2022-11-20T10:54:56.568Z,76.91
2022-11-20T10:56:03.568Z,77.14
2022-11-20T10:57:13.314Z,77.12
2022-11-20T11:00:03.235Z,77.16
2022-11-20T11:01:24.582Z,76.73
2022-11-20T11:02:44.298Z,76.11
2022-11-20T11:03:48.726Z,76.02
2022-11-20T11:04:53.602Z,76.00
2022-11-20T11:06:06.089Z,76.03
2022-11-20T11:07:30.457Z,75.88
2022-11-20T11:08:36.783Z,75.97
2022-11-20T11:09:46.413Z,75.99
2022-11-20T11:10:55.602Z,76.03
2022-11-20T11:12:02.906Z,75.98
2022-11-20T11:13:03.786Z,76.07
2022-11-20T11:14:10.304Z,76.13
2022-11-20T11:15:16.806Z,75.99
2022-11-20T11:16:25.837Z,76.07
2022-11-20T11:17:33.811Z,75.97
2022-11-20T11:18:36.800Z,75.91
2022-11-20T11:19:39.817Z,75.94
2022-11-20T11:20:46.946Z,75.83
2022-11-20T11:21:56.037Z,75.49
2022-11-20T11:22:59.968Z,75.14
2022-11-20T11:24:26.982Z,74.95
2022-11-20T11:25:28.469Z,74.93
2022-11-20T11:26:31.754Z,74.89
2022-11-20T11:27:34.886Z,74.98
2022-11-20T11:28:38.665Z,75.17
2022-11-20T11:29:41.656Z,75.19
2022-11-20T11:30:45.983Z,75.30
2022-11-20T11:31:48.999Z,75.29
2022-11-20T11:34:14.957Z,75.19
2022-11-20T11:35:27.375Z,75.01
2022-11-20T11:36:30.468Z,74.93
2022-11-20T11:37:36.202Z,74.95
2022-11-20T11:38:41.863Z,75.02
2022-11-20T11:39:49.393Z,74.92
2022-11-20T11:40:54.916Z,74.93
2022-11-20T11:42:00.844Z,74.77
2022-11-20T11:43:09.113Z,74.75
2022-11-20T11:44:39.527Z,74.68
2022-11-20T11:45:45.940Z,74.72
2022-11-20T11:46:54.967Z,74.72
2022-11-20T11:48:00.911Z,74.65
2022-11-20T11:49:14.128Z,74.61
2022-11-20T11:50:20.691Z,74.63
2022-11-20T11:51:29.341Z,74.53
2022-11-20T11:52:35.728Z,74.60
2022-11-20T11:53:41.770Z,74.65
2022-11-20T11:55:00.131Z,74.55
2022-11-20T11:56:11.945Z,74.38
2022-11-20T11:57:27.515Z,74.49
2022-11-20T11:58:37.202Z,74.70
2022-11-20T11:59:44.018Z,74.70
2022-11-20T12:02:27.525Z,74.71
2022-11-20T12:03:33.992Z,74.58
2022-11-20T12:04:49.404Z,74.51
2022-11-20T12:05:58.402Z,74.69
2022-11-20T12:07:24.324Z,74.71
2022-11-20T12:08:25.471Z,74.70
2022-11-20T12:09:32.224Z,74.77
2022-11-20T12:10:48.052Z,74.73
2022-11-20T12:11:57.329Z,74.82
2022-11-20T12:13:04.123Z,74.93
2022-11-20T12:14:36.225Z,75.02
2022-11-20T12:15:42.727Z,75.17
2022-11-20T12:16:46.473Z,75.38
2022-11-20T12:17:49.398Z,75.36
2022-11-20T12:18:53.532Z,75.39
2022-11-20T12:19:57.232Z,75.56
2022-11-20T12:21:20.701Z,75.53
2022-11-20T12:22:42.110Z,75.58
2022-11-20T12:24:09.568Z,75.53
2022-11-20T12:25:30.985Z,75.48
2022-11-20T12:26:58.924Z,75.60
2022-11-20T12:29:44.680Z,75.95
2022-11-20T12:31:03.422Z,76.05
2022-11-20T12:32:24.696Z,76.03
2022-11-20T12:33:34.040Z,76.14
2022-11-20T12:35:11.456Z,76.45
2022-11-20T12:36:22.064Z,76.52
2022-11-20T12:37:31.715Z,76.69
2022-11-20T12:39:02.102Z,76.60
2022-11-20T12:40:30.084Z,76.55
2022-11-20T12:42:10.107Z,76.66
2022-11-20T12:43:37.601Z,76.60
2022-11-20T12:45:11.720Z,76.57
2022-11-20T12:46:27.102Z,76.78
2022-11-20T12:47:50.004Z,76.97
2022-11-20T12:49:18.931Z,76.94
2022-11-20T12:50:26.667Z,77.12
2022-11-20T12:51:41.679Z,77.34
2022-11-20T12:52:51.134Z,77.55
2022-11-20T12:54:06.875Z,77.74
2022-11-20T12:55:19.498Z,77.91
2022-11-20T12:56:42.160Z,77.89
2022-11-20T12:57:49.772Z,78.07
2022-11-20T12:59:17.389Z,78.15
2022-11-20T13:00:25.486Z,78.29
2022-11-20T13:01:51.706Z,78.31
2022-11-20T13:03:08.414Z,78.55
2022-11-20T13:04:39.193Z,78.83
2022-11-20T13:05:58.060Z,78.72
2022-11-20T13:07:04.283Z,78.91
2022-11-20T13:08:10.780Z,78.89
2022-11-20T13:09:16.546Z,78.93
2022-11-20T13:10:46.242Z,78.97
2022-11-20T13:12:04.332Z,78.96
2022-11-20T13:13:13.978Z,79.04
2022-11-20T13:14:26.319Z,79.20
2022-11-20T13:15:46.032Z,79.23
2022-11-20T13:17:10.727Z,79.38
2022-11-20T13:18:14.700Z,79.51
2022-11-20T13:19:18.858Z,79.71
2022-11-20T13:20:23.336Z,79.92
2022-11-20T13:21:45.278Z,80.01
2022-11-20T13:22:51.429Z,80.10
2022-11-20T13:23:57.885Z,80.29
2022-11-20T13:25:00.958Z,80.46
2022-11-20T13:26:19.961Z,80.67
2022-11-20T13:27:24.596Z,80.82
2022-11-20T13:28:29.987Z,80.95
2022-11-20T13:29:38.097Z,81.05
2022-11-20T13:30:52.755Z,80.89
2022-11-20T13:32:07.817Z,80.83
2022-11-20T13:33:12.320Z,80.97
2022-11-20T13:34:24.823Z,81.17
2022-11-20T13:35:33.522Z,81.23
2022-11-20T13:36:37.135Z,81.23
2022-11-20T13:37:40.150Z,81.31
2022-11-20T13:38:48.857Z,81.29
2022-11-20T13:39:51.836Z,81.34
2022-11-20T13:41:02.604Z,81.27
2022-11-20T13:42:16.428Z,81.43
2022-11-20T13:43:23.534Z,81.33
2022-11-20T13:44:33.079Z,81.34
2022-11-20T13:45:36.246Z,81.51
2022-11-20T13:46:44.247Z,81.69
2022-11-20T13:47:51.974Z,81.84
2022-11-20T13:48:55.652Z,81.88
2022-11-20T13:50:00.135Z,81.93
2022-11-20T13:51:26.415Z,81.91
2022-11-20T13:52:45.015Z,81.84
2022-11-20T13:54:22.906Z,82.00
2022-11-20T13:55:53.443Z,82.04
2022-11-20T13:57:22.893Z,82.05
2022-11-20T13:58:51.879Z,82.08
2022-11-20T14:00:01.206Z,82.26
2022-11-20T14:01:13.693Z,82.34
2022-11-20T14:02:19.152Z,82.33
2022-11-20T14:03:44.021Z,82.35
2022-11-20T14:04:38.750Z,82.36
2022-11-20T14:05:49.325Z,82.44
2022-11-20T14:06:52.290Z,82.61
2022-11-20T14:07:56.728Z,82.59
2022-11-20T14:09:00.489Z,82.59
2022-11-20T14:10:04.627Z,82.63
2022-11-20T14:11:17.097Z,82.62
2022-11-20T14:12:23.520Z,82.65
2022-11-20T14:13:26.427Z,82.59
2022-11-20T14:14:31.395Z,82.57
2022-11-20T14:15:39.261Z,82.49
2022-11-20T14:16:40.790Z,82.45
2022-11-20T14:17:43.719Z,82.44
2022-11-20T14:18:46.668Z,82.52
2022-11-20T14:19:51.832Z,82.43
2022-11-20T14:20:54.861Z,82.58
2022-11-20T14:22:10.429Z,82.63
2022-11-20T14:23:13.820Z,82.70
2022-11-20T14:24:23.118Z,82.69
2022-11-20T14:25:31.488Z,82.60
2022-11-20T14:26:34.532Z,82.65
2022-11-20T14:27:39.558Z,82.76
2022-11-20T14:28:42.465Z,82.59
2022-11-20T14:29:48.017Z,82.42
2022-11-20T14:30:51.294Z,82.44
2022-11-20T14:31:56.233Z,82.41
2022-11-20T14:33:02.684Z,82.50
2022-11-20T14:34:05.567Z,82.47
2022-11-20T14:35:11.260Z,82.45
2022-11-20T14:36:22.412Z,82.45
2022-11-20T14:37:28.677Z,82.62
2022-11-20T14:38:33.360Z,82.50
2022-11-20T14:39:39.962Z,82.69
2022-11-20T14:40:43.810Z,82.75
2022-11-20T14:41:53.803Z,82.56
2022-11-20T14:42:58.083Z,82.62
2022-11-20T14:44:02.521Z,82.70
2022-11-20T14:45:06.065Z,82.86
2022-11-20T14:46:10.574Z,82.81
2022-11-20T14:47:17.928Z,82.96
2022-11-20T14:48:24.440Z,83.08
2022-11-20T14:49:30.137Z,83.15
2022-11-20T14:50:34.397Z,83.22
2022-11-20T14:51:42.637Z,83.40
2022-11-20T14:52:57.262Z,83.45
2022-11-20T14:54:14.700Z,83.41
2022-11-20T14:55:35.756Z,83.37
2022-11-20T14:56:39.194Z,83.43
2022-11-20T14:57:42.131Z,83.42
2022-11-20T14:58:48.658Z,83.43
2022-11-20T14:59:51.641Z,83.53
2022-11-20T15:01:05.031Z,83.64
2022-11-20T15:02:11.082Z,83.86
2022-11-20T15:03:17.345Z,83.86
2022-11-20T15:04:20.257Z,83.70
2022-11-20T15:05:26.607Z,83.68
2022-11-20T15:06:31.685Z,83.73
2022-11-20T15:07:37.476Z,83.79
2022-11-20T15:08:44.055Z,83.78
2022-11-20T15:09:47.020Z,83.84
2022-11-20T15:10:51.372Z,83.77
2022-11-20T15:12:02.943Z,83.83
2022-11-20T15:13:18.147Z,83.70
2022-11-20T15:14:21.549Z,83.80
2022-11-20T15:15:28.312Z,83.79
2022-11-20T15:16:31.538Z,83.81
2022-11-20T15:17:37.952Z,83.94
2022-11-20T15:18:42.129Z,83.81
2022-11-20T15:19:44.971Z,83.83
2022-11-20T15:20:48.607Z,83.99
2022-11-20T15:21:51.851Z,84.03
2022-11-20T15:22:54.940Z,84.00
2022-11-20T15:23:58.714Z,83.96
2022-11-20T15:25:01.544Z,83.87
2022-11-20T15:26:12.199Z,83.82
2022-11-20T15:27:15.388Z,83.87
2022-11-20T15:28:33.957Z,84.00
2022-11-20T15:29:37.124Z,83.97
2022-11-20T15:30:40.079Z,83.84
2022-11-20T15:31:44.861Z,83.70
2022-11-20T15:32:48.024Z,83.80
2022-11-20T15:33:51.229Z,83.80
2022-11-20T15:34:54.190Z,83.70
2022-11-20T15:35:57.402Z,83.71
2022-11-20T15:37:00.597Z,83.65
2022-11-20T15:38:03.683Z,83.72
2022-11-20T15:39:07.702Z,83.69
2022-11-20T15:40:11.337Z,83.73
2022-11-20T15:41:14.144Z,83.60
2022-11-20T15:42:17.084Z,83.55
2022-11-20T15:43:19.944Z,83.52
2022-11-20T15:44:23.037Z,83.40
2022-11-20T15:45:28.316Z,83.43
2022-11-20T15:46:40.882Z,83.55
2022-11-20T15:47:43.794Z,83.64
2022-11-20T15:48:57.844Z,83.71
2022-11-20T15:50:00.910Z,83.87
2022-11-20T15:51:16.376Z,83.95
2022-11-20T15:52:19.907Z,84.01
2022-11-20T15:53:22.952Z,84.35
2022-11-20T15:54:26.258Z,84.51
2022-11-20T15:55:29.469Z,84.77
2022-11-20T15:56:33.519Z,84.80
2022-11-20T15:57:36.495Z,85.06
2022-11-20T15:58:39.751Z,85.12
2022-11-20T15:59:42.794Z,85.21
2022-11-20T16:00:46.053Z,85.25
2022-11-20T16:01:50.027Z,85.37
2022-11-20T16:02:53.242Z,85.52
2022-11-20T16:03:56.449Z,85.54
2022-11-20T16:04:59.416Z,85.45
2022-11-20T16:06:02.498Z,85.58
2022-11-20T16:07:05.560Z,85.63
2022-11-20T16:08:11.540Z,85.71
2022-11-20T16:09:13.278Z,85.85
2022-11-20T16:10:16.696Z,85.64
2022-11-20T16:11:19.633Z,85.58
2022-11-20T16:12:41.065Z,85.60
2022-11-20T16:14:02.406Z,85.66
2022-11-20T16:15:24.292Z,85.80
2022-11-20T16:16:30.622Z,85.97
2022-11-20T16:17:35.422Z,86.26
2022-11-20T16:18:38.443Z,86.42
2022-11-20T16:19:41.336Z,86.42
2022-11-20T16:20:46.224Z,86.29
2022-11-20T16:21:49.156Z,86.30
2022-11-20T16:22:52.240Z,86.51
2022-11-20T16:23:55.349Z,86.44
2022-11-20T16:24:58.425Z,86.48
2022-11-20T16:26:05.366Z,86.67
2022-11-20T16:27:08.456Z,86.72
2022-11-20T16:28:17.449Z,86.70
2022-11-20T16:29:16.587Z,86.73
2022-11-20T16:30:19.685Z,86.83
2022-11-20T16:31:23.418Z,86.75
2022-11-20T16:32:26.653Z,86.91
2022-11-20T16:33:29.685Z,86.88
2022-11-20T20:04:55.547Z,95.19
2022-11-20T20:07:18.655Z,94.53
2022-11-20T20:08:21.552Z,94.33
2022-11-20T20:09:26.593Z,94.22
2022-11-20T20:10:30.033Z,93.97
2022-11-20T20:11:34.239Z,93.95
2022-11-20T20:12:37.112Z,93.79
2022-11-20T20:13:40.026Z,93.69
2022-11-20T20:14:42.964Z,93.67
2022-11-20T20:15:45.795Z,93.46
2022-11-20T20:16:48.627Z,93.35
2022-11-20T20:17:52.872Z,93.18
2022-11-20T20:19:00.702Z,93.02
2022-11-20T20:20:04.331Z,92.91
2022-11-20T20:21:10.168Z,92.78
2022-11-20T20:22:13.065Z,92.65
2022-11-20T20:23:15.931Z,92.71
2022-11-20T20:24:18.904Z,92.54
2022-11-20T20:25:22.151Z,92.41
2022-11-20T20:26:27.824Z,92.40
2022-11-20T20:27:31.246Z,92.26
2022-11-20T20:28:35.518Z,92.17
2022-11-20T20:29:38.349Z,92.11
2022-11-20T20:30:41.272Z,92.00
2022-11-20T20:31:44.232Z,91.97
2022-11-20T20:32:50.723Z,91.88
2022-11-20T20:33:52.339Z,91.83
2022-11-20T20:34:55.214Z,91.85
2022-11-20T20:35:58.820Z,91.76
2022-11-20T20:37:03.786Z,91.61
2022-11-20T20:38:06.868Z,91.54
2022-11-20T20:39:10.378Z,91.45
2022-11-20T20:40:15.476Z,91.32
2022-11-20T20:41:19.590Z,91.24
2022-11-20T20:42:22.463Z,91.15
2022-11-20T20:43:25.871Z,91.06
2022-11-20T20:44:46.736Z,91.02
2022-11-20T20:45:50.308Z,91.02
2022-11-20T20:46:53.294Z,91.10
2022-11-20T20:47:56.270Z,91.02
2022-11-20T20:48:59.219Z,91.01
2022-11-20T20:50:04.284Z,90.99
2022-11-20T20:51:09.075Z,91.05
2022-11-20T20:52:12.009Z,91.00
2022-11-20T20:53:15.037Z,90.92
2022-11-20T20:54:18.003Z,91.02
2022-11-20T20:55:20.905Z,90.93
2022-11-20T20:56:23.981Z,90.89
2022-11-20T20:57:28.021Z,90.87
2022-11-20T20:58:31.175Z,90.88
2022-11-20T20:59:34.100Z,90.87
2022-11-20T21:00:39.259Z,90.73
2022-11-20T21:01:43.773Z,90.63
2022-11-20T21:02:46.825Z,90.56
2022-11-20T21:03:49.770Z,90.51
2022-11-20T21:04:52.863Z,90.66
2022-11-20T21:05:56.965Z,90.55
2022-11-20T21:07:00.181Z,90.54